TimePDT,TemperatureF,Dew PointF,Humidity,Sea Level PressureIn,VisibilityMPH,Wind Direction,Wind SpeedMPH,Gust SpeedMPH,PrecipitationIn,Events,Conditions,WindDirDegrees,DateUTC
12:53 AM,55.0,53.1,93,30.04,8.0,SSE,3.5,-,N/A,,Overcast,150,2013-07-18 07:53:00
1:53 AM,55.0,53.1,93,30.02,7.0,Calm,Calm,-,N/A,,Overcast,0,2013-07-18 08:53:00
2:27 AM,53.6,53.6,100,30.04,5.0,Variable,3.5,-,N/A,,Overcast,0,2013-07-18 09:27:00
2:53 AM,55.0,53.1,93,30.02,4.0,Calm,Calm,-,N/A,,Overcast,0,2013-07-18 09:53:00
3:31 AM,53.6,53.6,100,30.03,1.8,Calm,Calm,-,N/A,,Overcast,0,2013-07-18 10:31:00
3:53 AM,54.0,53.1,97,30.01,1.2,South,3.5,-,N/A,,Overcast,180,2013-07-18 10:53:00
4:53 AM,54.0,53.1,97,30.01,1.5,Calm,Calm,-,N/A,,Overcast,0,2013-07-18 11:53:00
5:10 AM,53.6,53.6,100,30.03,2.0,Calm,Calm,-,N/A,,Overcast,0,2013-07-18 12:10:00
5:17 AM,53.6,53.6,100,30.03,1.8,Calm,Calm,-,N/A,,Overcast,0,2013-07-18 12:17:00
5:53 AM,54.0,53.1,97,30.01,1.0,NNW,3.5,-,N/A,,Mist,340,2013-07-18 12:53:00
6:53 AM,54.0,54.0,100,30.02,1.5,NE,3.5,-,N/A,,Overcast,40,2013-07-18 13:53:00
7:23 AM,53.6,53.6,100,30.04,1.5,NE,3.5,-,N/A,,Overcast,40,2013-07-18 14:23:00
7:53 AM,54.0,53.1,97,30.03,1.8,Calm,Calm,-,N/A,,Overcast,0,2013-07-18 14:53:00
8:53 AM,57.0,54.0,89,30.04,2.0,Calm,Calm,-,N/A,,Overcast,0,2013-07-18 15:53:00
9:13 AM,57.2,53.6,88,30.05,3.0,NNE,3.5,-,N/A,,Overcast,30,2013-07-18 16:13:00
9:20 AM,57.2,53.6,88,30.05,3.0,Calm,Calm,-,N/A,,Haze,0,2013-07-18 16:20:00
9:27 AM,59.0,53.6,82,30.05,3.0,ENE,3.5,-,N/A,,Haze,70,2013-07-18 16:27:00
9:53 AM,59.0,54.0,83,30.02,8.0,Variable,3.5,-,N/A,,Scattered Clouds,0,2013-07-18 16:53:00
10:53 AM,64.0,55.0,73,30.01,10.0,SSW,6.9,-,N/A,,Partly Cloudy,200,2013-07-18 17:53:00
11:53 AM,71.1,55.9,59,30.01,10.0,SSE,5.8,-,N/A,,Partly Cloudy,150,2013-07-18 18:53:00
12:53 PM,75.9,55.9,50,29.99,10.0,South,6.9,-,N/A,,Clear,180,2013-07-18 19:53:00
1:53 PM,80.1,55.9,43,29.97,10.0,SSE,8.1,-,N/A,,Clear,160,2013-07-18 20:53:00
2:53 PM,80.1,54.0,40,29.96,10.0,South,11.5,-,N/A,,Clear,170,2013-07-18 21:53:00
3:53 PM,79.0,55.0,44,29.94,10.0,South,10.4,-,N/A,,Clear,180,2013-07-18 22:53:00
4:53 PM,80.1,55.0,42,29.92,10.0,SSE,10.4,-,N/A,,Clear,150,2013-07-18 23:53:00
5:53 PM,73.9,55.0,52,29.91,10.0,SE,12.7,-,N/A,,Clear,140,2013-07-19 00:53:00
6:53 PM,69.1,54.0,58,29.90,10.0,SE,11.5,-,N/A,,Clear,140,2013-07-19 01:53:00
7:53 PM,62.1,52.0,70,29.91,9.0,SSE,11.5,-,N/A,,Clear,150,2013-07-19 02:53:00
8:53 PM,57.0,52.0,83,29.92,8.0,SSE,8.1,-,N/A,,Clear,150,2013-07-19 03:53:00
9:53 PM,55.0,52.0,89,29.93,8.0,SSE,4.6,-,N/A,,Clear,150,2013-07-19 04:53:00
10:53 PM,54.0,52.0,93,29.93,7.0,SSE,3.5,-,N/A,,Clear,150,2013-07-19 05:53:00
11:53 PM,54.0,51.1,90,29.93,6.0,South,3.5,-,N/A,,Clear,170,2013-07-19 06:53:00